sensor_id;sensor_type;location;lat;lon;timestamp;pressure;altitude;pressure_sealevel;temperature
33877;BMP180;20166;51.738;7.158;2023-11-21T00:01:51;100460.00;;;8.40
33877;BMP180;20166;51.738;7.158;2023-11-21T00:04:37;100457.00;;;8.40
33877;BMP180;20166;51.738;7.158;2023-11-21T00:07:23;100467.00;;;8.40
33877;BMP180;20166;51.738;7.158;2023-11-21T00:10:11;100461.00;;;8.50
33877;BMP180;20166;51.738;7.158;2023-11-21T00:12:59;100473.00;;;8.50
33877;BMP180;20166;51.738;7.158;2023-11-21T00:15:48;100473.00;;;8.50
33877;BMP180;20166;51.738;7.158;2023-11-21T00:18:35;100477.00;;;8.50
33877;BMP180;20166;51.738;7.158;2023-11-21T00:21:21;100474.00;;;8.50
33877;BMP180;20166;51.738;7.158;2023-11-21T00:24:08;100476.00;;;8.60
33877;BMP180;20166;51.738;7.158;2023-11-21T00:26:54;100482.00;;;8.60
33877;BMP180;20166;51.738;7.158;2023-11-21T00:29:40;100478.00;;;8.70
33877;BMP180;20166;51.738;7.158;2023-11-21T00:32:28;100472.00;;;8.60
33877;BMP180;20166;51.738;7.158;2023-11-21T00:35:14;100482.00;;;8.70
33877;BMP180;20166;51.738;7.158;2023-11-21T00:38:01;100482.00;;;8.70
33877;BMP180;20166;51.738;7.158;2023-11-21T00:40:48;100484.00;;;8.70
33877;BMP180;20166;51.738;7.158;2023-11-21T00:43:34;100487.00;;;8.70
33877;BMP180;20166;51.738;7.158;2023-11-21T00:46:20;100492.00;;;8.80
33877;BMP180;20166;51.738;7.158;2023-11-21T00:49:08;100489.00;;;8.70
33877;BMP180;20166;51.738;7.158;2023-11-21T00:51:55;100477.00;;;8.80
33877;BMP180;20166;51.738;7.158;2023-11-21T00:54:42;100479.00;;;8.70
33877;BMP180;20166;51.738;7.158;2023-11-21T00:57:30;100477.00;;;8.80
33877;BMP180;20166;51.738;7.158;2023-11-21T01:00:17;100468.00;;;8.70
33877;BMP180;20166;51.738;7.158;2023-11-21T01:03:03;100468.00;;;8.60
33877;BMP180;20166;51.738;7.158;2023-11-21T01:05:51;100478.00;;;8.60
33877;BMP180;20166;51.738;7.158;2023-11-21T01:08:38;100493.00;;;8.60
33877;BMP180;20166;51.738;7.158;2023-11-21T01:11:24;100494.00;;;8.50
33877;BMP180;20166;51.738;7.158;2023-11-21T01:14:11;100504.00;;;8.40
33877;BMP180;20166;51.738;7.158;2023-11-21T01:16:58;100502.00;;;8.30
33877;BMP180;20166;51.738;7.158;2023-11-21T01:19:45;100495.00;;;8.30
33877;BMP180;20166;51.738;7.158;2023-11-21T01:22:32;100499.00;;;8.20
33877;BMP180;20166;51.738;7.158;2023-11-21T01:25:19;100497.00;;;8.20
33877;BMP180;20166;51.738;7.158;2023-11-21T01:28:06;100504.00;;;8.10
33877;BMP180;20166;51.738;7.158;2023-11-21T01:30:52;100507.00;;;8.00
33877;BMP180;20166;51.738;7.158;2023-11-21T01:33:41;100508.00;;;8.00
33877;BMP180;20166;51.738;7.158;2023-11-21T01:36:30;100509.00;;;7.90
33877;BMP180;20166;51.738;7.158;2023-11-21T01:39:19;100516.00;;;7.90
33877;BMP180;20166;51.738;7.158;2023-11-21T01:42:08;100505.00;;;7.90
33877;BMP180;20166;51.738;7.158;2023-11-21T01:44:56;100509.00;;;7.80
33877;BMP180;20166;51.738;7.158;2023-11-21T01:47:44;100509.00;;;7.70
33877;BMP180;20166;51.738;7.158;2023-11-21T01:50:31;100514.00;;;7.70
33877;BMP180;20166;51.738;7.158;2023-11-21T01:53:18;100522.00;;;7.60
33877;BMP180;20166;51.738;7.158;2023-11-21T01:56:07;100519.00;;;7.60
33877;BMP180;20166;51.738;7.158;2023-11-21T01:58:54;100525.00;;;7.60
33877;BMP180;20166;51.738;7.158;2023-11-21T02:01:42;100522.00;;;7.60
33877;BMP180;20166;51.738;7.158;2023-11-21T02:04:29;100520.00;;;7.50
33877;BMP180;20166;51.738;7.158;2023-11-21T02:07:15;100518.00;;;7.50
33877;BMP180;20166;51.738;7.158;2023-11-21T02:10:04;100519.00;;;7.50
33877;BMP180;20166;51.738;7.158;2023-11-21T02:12:52;100526.00;;;7.50
33877;BMP180;20166;51.738;7.158;2023-11-21T02:15:39;100537.00;;;7.40
33877;BMP180;20166;51.738;7.158;2023-11-21T02:18:26;100546.00;;;7.40
33877;BMP180;20166;51.738;7.158;2023-11-21T02:21:14;100555.00;;;7.40
33877;BMP180;20166;51.738;7.158;2023-11-21T02:24:02;100550.00;;;7.50
33877;BMP180;20166;51.738;7.158;2023-11-21T02:26:49;100546.00;;;7.40
33877;BMP180;20166;51.738;7.158;2023-11-21T02:29:36;100549.00;;;7.40
33877;BMP180;20166;51.738;7.158;2023-11-21T02:32:23;100545.00;;;7.50
33877;BMP180;20166;51.738;7.158;2023-11-21T02:35:11;100551.00;;;7.50
33877;BMP180;20166;51.738;7.158;2023-11-21T02:37:57;100555.00;;;7.50
33877;BMP180;20166;51.738;7.158;2023-11-21T02:40:45;100547.00;;;7.60
33877;BMP180;20166;51.738;7.158;2023-11-21T02:43:31;100549.00;;;7.60
33877;BMP180;20166;51.738;7.158;2023-11-21T02:46:17;100546.00;;;7.60
33877;BMP180;20166;51.738;7.158;2023-11-21T02:49:04;100563.00;;;7.60
33877;BMP180;20166;51.738;7.158;2023-11-21T02:51:51;100567.00;;;7.60
33877;BMP180;20166;51.738;7.158;2023-11-21T02:54:37;100558.00;;;7.50
33877;BMP180;20166;51.738;7.158;2023-11-21T02:57:25;100561.00;;;7.50
33877;BMP180;20166;51.738;7.158;2023-11-21T03:00:11;100565.00;;;7.60
33877;BMP180;20166;51.738;7.158;2023-11-21T03:03:00;100564.00;;;7.60
33877;BMP180;20166;51.738;7.158;2023-11-21T03:05:46;100570.00;;;7.60
33877;BMP180;20166;51.738;7.158;2023-11-21T03:08:32;100572.00;;;7.60
33877;BMP180;20166;51.738;7.158;2023-11-21T03:11:19;100574.00;;;7.60
33877;BMP180;20166;51.738;7.158;2023-11-21T03:14:06;100577.00;;;7.60
33877;BMP180;20166;51.738;7.158;2023-11-21T03:16:52;100573.00;;;7.60
33877;BMP180;20166;51.738;7.158;2023-11-21T03:19:39;100565.00;;;7.70
33877;BMP180;20166;51.738;7.158;2023-11-21T03:22:27;100568.00;;;7.70
33877;BMP180;20166;51.738;7.158;2023-11-21T03:25:14;100568.00;;;7.60
33877;BMP180;20166;51.738;7.158;2023-11-21T03:28:02;100579.00;;;7.70
33877;BMP180;20166;51.738;7.158;2023-11-21T03:30:50;100578.00;;;7.60
33877;BMP180;20166;51.738;7.158;2023-11-21T03:33:36;100582.00;;;7.60
33877;BMP180;20166;51.738;7.158;2023-11-21T03:36:22;100599.00;;;7.60
33877;BMP180;20166;51.738;7.158;2023-11-21T03:39:10;100603.00;;;7.60
33877;BMP180;20166;51.738;7.158;2023-11-21T03:41:56;100607.00;;;7.60
33877;BMP180;20166;51.738;7.158;2023-11-21T03:44:43;100610.00;;;7.50
33877;BMP180;20166;51.738;7.158;2023-11-21T03:47:31;100614.00;;;7.60
33877;BMP180;20166;51.738;7.158;2023-11-21T03:50:17;100614.00;;;7.60
33877;BMP180;20166;51.738;7.158;2023-11-21T03:53:04;100620.00;;;7.60
33877;BMP180;20166;51.738;7.158;2023-11-21T03:55:50;100629.00;;;7.60
33877;BMP180;20166;51.738;7.158;2023-11-21T03:58:37;100625.00;;;7.70
33877;BMP180;20166;51.738;7.158;2023-11-21T04:01:24;100632.00;;;7.80
33877;BMP180;20166;51.738;7.158;2023-11-21T04:04:12;100625.00;;;7.70
33877;BMP180;20166;51.738;7.158;2023-11-21T04:06:59;100629.00;;;7.70
33877;BMP180;20166;51.738;7.158;2023-11-21T04:09:45;100637.00;;;7.80
33877;BMP180;20166;51.738;7.158;2023-11-21T04:12:32;100621.00;;;7.80
33877;BMP180;20166;51.738;7.158;2023-11-21T04:15:18;100636.00;;;7.70
33877;BMP180;20166;51.738;7.158;2023-11-21T04:18:05;100633.00;;;7.70
33877;BMP180;20166;51.738;7.158;2023-11-21T04:20:52;100634.00;;;7.70
33877;BMP180;20166;51.738;7.158;2023-11-21T04:23:39;100617.00;;;7.70
33877;BMP180;20166;51.738;7.158;2023-11-21T04:26:25;100632.00;;;7.70
33877;BMP180;20166;51.738;7.158;2023-11-21T04:29:12;100626.00;;;7.60
33877;BMP180;20166;51.738;7.158;2023-11-21T04:31:58;100625.00;;;7.60
33877;BMP180;20166;51.738;7.158;2023-11-21T04:34:45;100625.00;;;7.60
33877;BMP180;20166;51.738;7.158;2023-11-21T04:37:32;100619.00;;;7.60
33877;BMP180;20166;51.738;7.158;2023-11-21T04:40:19;100627.00;;;7.60
33877;BMP180;20166;51.738;7.158;2023-11-21T04:43:05;100623.00;;;7.60
33877;BMP180;20166;51.738;7.158;2023-11-21T04:45:52;100632.00;;;7.60
33877;BMP180;20166;51.738;7.158;2023-11-21T04:48:38;100630.00;;;7.60
33877;BMP180;20166;51.738;7.158;2023-11-21T04:51:24;100636.00;;;7.60
33877;BMP180;20166;51.738;7.158;2023-11-21T04:54:13;100648.00;;;7.60
33877;BMP180;20166;51.738;7.158;2023-11-21T04:56:59;100655.00;;;7.60
33877;BMP180;20166;51.738;7.158;2023-11-21T04:59:45;100663.00;;;7.60
33877;BMP180;20166;51.738;7.158;2023-11-21T05:02:32;100669.00;;;7.70
33877;BMP180;20166;51.738;7.158;2023-11-21T05:05:20;100661.00;;;7.80
33877;BMP180;20166;51.738;7.158;2023-11-21T05:08:07;100666.00;;;7.70
33877;BMP180;20166;51.738;7.158;2023-11-21T05:10:55;100676.00;;;7.80
33877;BMP180;20166;51.738;7.158;2023-11-21T05:13:42;100667.00;;;7.80
33877;BMP180;20166;51.738;7.158;2023-11-21T05:16:28;100675.00;;;7.90
33877;BMP180;20166;51.738;7.158;2023-11-21T05:19:15;100677.00;;;7.90
33877;BMP180;20166;51.738;7.158;2023-11-21T05:22:01;100683.00;;;7.90
33877;BMP180;20166;51.738;7.158;2023-11-21T05:24:48;100673.00;;;7.90
33877;BMP180;20166;51.738;7.158;2023-11-21T05:27:36;100684.00;;;7.80
33877;BMP180;20166;51.738;7.158;2023-11-21T05:30:22;100683.00;;;7.90
33877;BMP180;20166;51.738;7.158;2023-11-21T05:33:08;100688.00;;;7.90
33877;BMP180;20166;51.738;7.158;2023-11-21T05:35:54;100697.00;;;7.90
33877;BMP180;20166;51.738;7.158;2023-11-21T05:38:41;100702.00;;;7.90
33877;BMP180;20166;51.738;7.158;2023-11-21T05:41:27;100700.00;;;7.90
33877;BMP180;20166;51.738;7.158;2023-11-21T05:44:15;100705.00;;;7.90
33877;BMP180;20166;51.738;7.158;2023-11-21T05:47:01;100727.00;;;8.00
33877;BMP180;20166;51.738;7.158;2023-11-21T05:49:49;100716.00;;;8.00
33877;BMP180;20166;51.738;7.158;2023-11-21T05:52:36;100723.00;;;8.00
33877;BMP180;20166;51.738;7.158;2023-11-21T05:55:23;100728.00;;;8.00
33877;BMP180;20166;51.738;7.158;2023-11-21T05:58:11;100736.00;;;8.00
33877;BMP180;20166;51.738;7.158;2023-11-21T06:01:00;100727.00;;;8.00
33877;BMP180;20166;51.738;7.158;2023-11-21T06:03:46;100733.00;;;8.00
33877;BMP180;20166;51.738;7.158;2023-11-21T06:06:33;100748.00;;;8.00
33877;BMP180;20166;51.738;7.158;2023-11-21T06:09:19;100745.00;;;8.00
33877;BMP180;20166;51.738;7.158;2023-11-21T06:12:07;100750.00;;;8.10
33877;BMP180;20166;51.738;7.158;2023-11-21T06:14:53;100753.00;;;8.10
33877;BMP180;20166;51.738;7.158;2023-11-21T06:17:42;100762.00;;;8.20
33877;BMP180;20166;51.738;7.158;2023-11-21T06:20:29;100761.00;;;8.10
33877;BMP180;20166;51.738;7.158;2023-11-21T06:23:16;100762.00;;;8.10
33877;BMP180;20166;51.738;7.158;2023-11-21T06:26:02;100775.00;;;8.20
33877;BMP180;20166;51.738;7.158;2023-11-21T06:28:49;100773.00;;;8.20
33877;BMP180;20166;51.738;7.158;2023-11-21T06:31:36;100777.00;;;8.30
33877;BMP180;20166;51.738;7.158;2023-11-21T06:34:24;100776.00;;;8.20
33877;BMP180;20166;51.738;7.158;2023-11-21T06:37:10;100788.00;;;8.20
33877;BMP180;20166;51.738;7.158;2023-11-21T06:39:57;100784.00;;;8.30
33877;BMP180;20166;51.738;7.158;2023-11-21T06:42:43;100785.00;;;8.30
33877;BMP180;20166;51.738;7.158;2023-11-21T06:45:31;100794.00;;;8.30
33877;BMP180;20166;51.738;7.158;2023-11-21T06:48:19;100791.00;;;8.30
33877;BMP180;20166;51.738;7.158;2023-11-21T06:51:07;100801.00;;;8.40
33877;BMP180;20166;51.738;7.158;2023-11-21T06:53:53;100798.00;;;8.40
33877;BMP180;20166;51.738;7.158;2023-11-21T06:56:39;100811.00;;;8.40
33877;BMP180;20166;51.738;7.158;2023-11-21T06:59:28;100812.00;;;8.40
33877;BMP180;20166;51.738;7.158;2023-11-21T07:02:14;100805.00;;;8.50
33877;BMP180;20166;51.738;7.158;2023-11-21T07:05:04;100814.00;;;8.50
33877;BMP180;20166;51.738;7.158;2023-11-21T07:07:52;100819.00;;;8.50
33877;BMP180;20166;51.738;7.158;2023-11-21T07:10:39;100824.00;;;8.50
33877;BMP180;20166;51.738;7.158;2023-11-21T07:13:25;100821.00;;;8.50
33877;BMP180;20166;51.738;7.158;2023-11-21T07:16:11;100814.00;;;8.60
33877;BMP180;20166;51.738;7.158;2023-11-21T07:18:58;100816.00;;;8.60
33877;BMP180;20166;51.738;7.158;2023-11-21T07:21:44;100818.00;;;8.60
33877;BMP180;20166;51.738;7.158;2023-11-21T07:24:31;100822.00;;;8.60
33877;BMP180;20166;51.738;7.158;2023-11-21T07:27:18;100830.00;;;8.60
33877;BMP180;20166;51.738;7.158;2023-11-21T07:30:05;100827.00;;;8.60
33877;BMP180;20166;51.738;7.158;2023-11-21T07:32:53;100836.00;;;8.60
33877;BMP180;20166;51.738;7.158;2023-11-21T07:35:40;100833.00;;;8.60
33877;BMP180;20166;51.738;7.158;2023-11-21T07:38:27;100844.00;;;8.60
33877;BMP180;20166;51.738;7.158;2023-11-21T07:41:15;100853.00;;;8.60
33877;BMP180;20166;51.738;7.158;2023-11-21T07:44:15;100856.00;;;8.60
33877;BMP180;20166;51.738;7.158;2023-11-21T07:47:02;100862.00;;;8.70
33877;BMP180;20166;51.738;7.158;2023-11-21T07:49:49;100862.00;;;8.70
33877;BMP180;20166;51.738;7.158;2023-11-21T07:52:36;100869.00;;;8.70
33877;BMP180;20166;51.738;7.158;2023-11-21T07:55:22;100880.00;;;8.70
33877;BMP180;20166;51.738;7.158;2023-11-21T07:58:11;100875.00;;;8.70
33877;BMP180;20166;51.738;7.158;2023-11-21T08:00:57;100892.00;;;8.70
33877;BMP180;20166;51.738;7.158;2023-11-21T08:03:44;100888.00;;;8.80
33877;BMP180;20166;51.738;7.158;2023-11-21T08:06:30;100899.00;;;8.80
33877;BMP180;20166;51.738;7.158;2023-11-21T08:09:17;100902.00;;;8.80
33877;BMP180;20166;51.738;7.158;2023-11-21T08:12:04;100915.00;;;8.90
33877;BMP180;20166;51.738;7.158;2023-11-21T08:14:52;100912.00;;;8.80
33877;BMP180;20166;51.738;7.158;2023-11-21T08:17:38;100908.00;;;8.80
33877;BMP180;20166;51.738;7.158;2023-11-21T08:20:24;100934.00;;;8.90
33877;BMP180;20166;51.738;7.158;2023-11-21T08:23:11;100934.00;;;9.00
33877;BMP180;20166;51.738;7.158;2023-11-21T08:25:57;100933.00;;;8.90
33877;BMP180;20166;51.738;7.158;2023-11-21T08:28:44;100936.00;;;8.90
33877;BMP180;20166;51.738;7.158;2023-11-21T08:31:32;100949.00;;;8.90
33877;BMP180;20166;51.738;7.158;2023-11-21T08:34:18;100954.00;;;9.00
33877;BMP180;20166;51.738;7.158;2023-11-21T08:37:05;100951.00;;;8.90
33877;BMP180;20166;51.738;7.158;2023-11-21T08:39:57;100955.00;;;9.00
33877;BMP180;20166;51.738;7.158;2023-11-21T08:42:44;100963.00;;;9.00
33877;BMP180;20166;51.738;7.158;2023-11-21T08:45:31;100957.00;;;9.00
33877;BMP180;20166;51.738;7.158;2023-11-21T08:48:20;100962.00;;;9.00
33877;BMP180;20166;51.738;7.158;2023-11-21T08:51:10;100961.00;;;9.00
33877;BMP180;20166;51.738;7.158;2023-11-21T08:53:57;100959.00;;;9.00
33877;BMP180;20166;51.738;7.158;2023-11-21T08:56:45;100966.00;;;9.00
33877;BMP180;20166;51.738;7.158;2023-11-21T08:59:32;100959.00;;;9.00
33877;BMP180;20166;51.738;7.158;2023-11-21T09:02:18;100971.00;;;9.10
33877;BMP180;20166;51.738;7.158;2023-11-21T09:05:07;100966.00;;;9.00
33877;BMP180;20166;51.738;7.158;2023-11-21T09:07:54;100976.00;;;9.00
33877;BMP180;20166;51.738;7.158;2023-11-21T09:10:40;100982.00;;;9.10
33877;BMP180;20166;51.738;7.158;2023-11-21T09:13:28;100976.00;;;9.10
33877;BMP180;20166;51.738;7.158;2023-11-21T09:16:15;100986.00;;;9.20
33877;BMP180;20166;51.738;7.158;2023-11-21T09:19:01;100983.00;;;9.20
33877;BMP180;20166;51.738;7.158;2023-11-21T09:21:50;100994.00;;;9.30
33877;BMP180;20166;51.738;7.158;2023-11-21T09:24:36;100988.00;;;9.30
33877;BMP180;20166;51.738;7.158;2023-11-21T09:27:24;100998.00;;;9.30
33877;BMP180;20166;51.738;7.158;2023-11-21T09:30:12;100994.00;;;9.40
33877;BMP180;20166;51.738;7.158;2023-11-21T09:32:59;100998.00;;;9.50
33877;BMP180;20166;51.738;7.158;2023-11-21T09:35:45;101002.00;;;9.50
33877;BMP180;20166;51.738;7.158;2023-11-21T09:38:34;101004.00;;;9.60
33877;BMP180;20166;51.738;7.158;2023-11-21T09:41:25;101007.00;;;9.70
33877;BMP180;20166;51.738;7.158;2023-11-21T09:44:18;101007.00;;;9.70
33877;BMP180;20166;51.738;7.158;2023-11-21T09:47:05;101023.00;;;9.70
33877;BMP180;20166;51.738;7.158;2023-11-21T09:49:56;101026.00;;;9.80
33877;BMP180;20166;51.738;7.158;2023-11-21T09:53:03;101025.00;;;9.80
33877;BMP180;20166;51.738;7.158;2023-11-21T09:55:56;101029.00;;;9.90
33877;BMP180;20166;51.738;7.158;2023-11-21T09:58:45;101035.00;;;9.80
33877;BMP180;20166;51.738;7.158;2023-11-21T10:01:36;101029.00;;;9.80
33877;BMP180;20166;51.738;7.158;2023-11-21T10:04:22;101039.00;;;9.80
33877;BMP180;20166;51.738;7.158;2023-11-21T10:07:09;101039.00;;;9.90
33877;BMP180;20166;51.738;7.158;2023-11-21T10:09:56;101034.00;;;9.90
33877;BMP180;20166;51.738;7.158;2023-11-21T10:12:49;101033.00;;;9.90
33877;BMP180;20166;51.738;7.158;2023-11-21T10:15:38;101037.00;;;10.00
33877;BMP180;20166;51.738;7.158;2023-11-21T10:18:26;101046.00;;;10.10
33877;BMP180;20166;51.738;7.158;2023-11-21T10:21:13;101045.00;;;10.10
33877;BMP180;20166;51.738;7.158;2023-11-21T10:24:00;101053.00;;;10.20
33877;BMP180;20166;51.738;7.158;2023-11-21T10:26:46;101046.00;;;10.20
33877;BMP180;20166;51.738;7.158;2023-11-21T10:29:40;101055.00;;;10.30
33877;BMP180;20166;51.738;7.158;2023-11-21T10:32:28;101055.00;;;10.20
33877;BMP180;20166;51.738;7.158;2023-11-21T10:35:17;101048.00;;;10.20
33877;BMP180;20166;51.738;7.158;2023-11-21T10:38:04;101054.00;;;10.30
33877;BMP180;20166;51.738;7.158;2023-11-21T10:40:51;101058.00;;;10.30
33877;BMP180;20166;51.738;7.158;2023-11-21T10:43:38;101056.00;;;10.30
33877;BMP180;20166;51.738;7.158;2023-11-21T10:46:27;101070.00;;;10.30
33877;BMP180;20166;51.738;7.158;2023-11-21T10:49:16;101071.00;;;10.20
33877;BMP180;20166;51.738;7.158;2023-11-21T10:52:03;101076.00;;;10.30
33877;BMP180;20166;51.738;7.158;2023-11-21T10:54:49;101078.00;;;10.30
33877;BMP180;20166;51.738;7.158;2023-11-21T10:57:36;101078.00;;;10.30
33877;BMP180;20166;51.738;7.158;2023-11-21T11:00:24;101085.00;;;10.30
33877;BMP180;20166;51.738;7.158;2023-11-21T11:03:12;101084.00;;;10.20
33877;BMP180;20166;51.738;7.158;2023-11-21T11:06:02;101085.00;;;10.30
33877;BMP180;20166;51.738;7.158;2023-11-21T11:08:49;101083.00;;;10.30
33877;BMP180;20166;51.738;7.158;2023-11-21T11:11:35;101083.00;;;10.30
33877;BMP180;20166;51.738;7.158;2023-11-21T11:14:24;101088.00;;;10.30
33877;BMP180;20166;51.738;7.158;2023-11-21T11:17:12;101093.00;;;10.40
33877;BMP180;20166;51.738;7.158;2023-11-21T11:20:01;101088.00;;;10.30
33877;BMP180;20166;51.738;7.158;2023-11-21T11:23:04;101090.00;;;10.30
33877;BMP180;20166;51.738;7.158;2023-11-21T11:26:06;101088.00;;;10.40
33877;BMP180;20166;51.738;7.158;2023-11-21T11:29:02;101101.00;;;10.40
33877;BMP180;20166;51.738;7.158;2023-11-21T11:32:03;101094.00;;;10.30
33877;BMP180;20166;51.738;7.158;2023-11-21T11:34:56;101102.00;;;10.40
33877;BMP180;20166;51.738;7.158;2023-11-21T11:37:47;101105.00;;;10.40
33877;BMP180;20166;51.738;7.158;2023-11-21T11:40:41;101102.00;;;10.50
33877;BMP180;20166;51.738;7.158;2023-11-21T11:43:27;101106.00;;;10.50
33877;BMP180;20166;51.738;7.158;2023-11-21T11:46:14;101100.00;;;10.40
33877;BMP180;20166;51.738;7.158;2023-11-21T11:49:02;101107.00;;;10.50
33877;BMP180;20166;51.738;7.158;2023-11-21T11:52:33;101117.00;;;10.40
33877;BMP180;20166;51.738;7.158;2023-11-21T11:55:23;101113.00;;;10.40
33877;BMP180;20166;51.738;7.158;2023-11-21T11:58:10;101108.00;;;10.40
33877;BMP180;20166;51.738;7.158;2023-11-21T12:00:56;101108.00;;;10.40
33877;BMP180;20166;51.738;7.158;2023-11-21T12:03:43;101117.00;;;10.50
33877;BMP180;20166;51.738;7.158;2023-11-21T12:06:33;101130.00;;;10.40
33877;BMP180;20166;51.738;7.158;2023-11-21T12:09:20;101124.00;;;10.40
33877;BMP180;20166;51.738;7.158;2023-11-21T12:12:09;101131.00;;;10.30
33877;BMP180;20166;51.738;7.158;2023-11-21T12:14:55;101131.00;;;10.30
33877;BMP180;20166;51.738;7.158;2023-11-21T12:17:43;101146.00;;;10.30
33877;BMP180;20166;51.738;7.158;2023-11-21T12:20:30;101138.00;;;10.30
33877;BMP180;20166;51.738;7.158;2023-11-21T12:23:16;101140.00;;;10.30
33877;BMP180;20166;51.738;7.158;2023-11-21T12:26:03;101140.00;;;10.30
33877;BMP180;20166;51.738;7.158;2023-11-21T12:28:53;101153.00;;;10.40
33877;BMP180;20166;51.738;7.158;2023-11-21T12:31:41;101158.00;;;10.30
33877;BMP180;20166;51.738;7.158;2023-11-21T12:34:27;101151.00;;;10.30
33877;BMP180;20166;51.738;7.158;2023-11-21T12:37:14;101155.00;;;10.40
33877;BMP180;20166;51.738;7.158;2023-11-21T12:40:01;101155.00;;;10.30
33877;BMP180;20166;51.738;7.158;2023-11-21T12:42:48;101165.00;;;10.30
33877;BMP180;20166;51.738;7.158;2023-11-21T12:45:36;101169.00;;;10.40
33877;BMP180;20166;51.738;7.158;2023-11-21T12:48:23;101171.00;;;10.30
33877;BMP180;20166;51.738;7.158;2023-11-21T12:51:10;101175.00;;;10.20
33877;BMP180;20166;51.738;7.158;2023-11-21T12:53:57;101188.00;;;10.20
33877;BMP180;20166;51.738;7.158;2023-11-21T12:56:45;101185.00;;;10.30
33877;BMP180;20166;51.738;7.158;2023-11-21T12:59:34;101193.00;;;10.30
33877;BMP180;20166;51.738;7.158;2023-11-21T13:02:21;101190.00;;;10.20
33877;BMP180;20166;51.738;7.158;2023-11-21T13:05:09;101194.00;;;10.10
33877;BMP180;20166;51.738;7.158;2023-11-21T13:08:09;101194.00;;;10.20
33877;BMP180;20166;51.738;7.158;2023-11-21T13:10:58;101205.00;;;10.10
33877;BMP180;20166;51.738;7.158;2023-11-21T13:13:45;101203.00;;;10.10
33877;BMP180;20166;51.738;7.158;2023-11-21T13:16:32;101204.00;;;10.00
33877;BMP180;20166;51.738;7.158;2023-11-21T13:19:19;101197.00;;;10.10
33877;BMP180;20166;51.738;7.158;2023-11-21T13:22:06;101208.00;;;10.00
33877;BMP180;20166;51.738;7.158;2023-11-21T13:24:56;101214.00;;;10.00
33877;BMP180;20166;51.738;7.158;2023-11-21T13:27:43;101227.00;;;9.90
33877;BMP180;20166;51.738;7.158;2023-11-21T13:30:30;101217.00;;;9.90
33877;BMP180;20166;51.738;7.158;2023-11-21T13:33:18;101227.00;;;9.90
33877;BMP180;20166;51.738;7.158;2023-11-21T13:36:13;101229.00;;;9.90
33877;BMP180;20166;51.738;7.158;2023-11-21T13:39:07;101238.00;;;9.90
33877;BMP180;20166;51.738;7.158;2023-11-21T13:42:01;101243.00;;;10.00
33877;BMP180;20166;51.738;7.158;2023-11-21T13:44:48;101241.00;;;9.90
33877;BMP180;20166;51.738;7.158;2023-11-21T13:47:35;101249.00;;;10.00
33877;BMP180;20166;51.738;7.158;2023-11-21T13:50:23;101243.00;;;9.90
33877;BMP180;20166;51.738;7.158;2023-11-21T13:53:15;101256.00;;;10.00
33877;BMP180;20166;51.738;7.158;2023-11-21T13:56:07;101244.00;;;10.00
33877;BMP180;20166;51.738;7.158;2023-11-21T13:58:54;101245.00;;;10.10
33877;BMP180;20166;51.738;7.158;2023-11-21T14:01:41;101248.00;;;10.20
33877;BMP180;20166;51.738;7.158;2023-11-21T14:04:39;101258.00;;;10.20
33877;BMP180;20166;51.738;7.158;2023-11-21T14:07:39;101255.00;;;10.20
33877;BMP180;20166;51.738;7.158;2023-11-21T14:10:34;101257.00;;;10.20
33877;BMP180;20166;51.738;7.158;2023-11-21T14:13:27;101263.00;;;10.20
33877;BMP180;20166;51.738;7.158;2023-11-21T14:16:13;101273.00;;;10.10
33877;BMP180;20166;51.738;7.158;2023-11-21T14:19:01;101275.00;;;10.00
33877;BMP180;20166;51.738;7.158;2023-11-21T14:21:59;101266.00;;;9.90
33877;BMP180;20166;51.738;7.158;2023-11-21T14:24:45;101272.00;;;9.90
33877;BMP180;20166;51.738;7.158;2023-11-21T14:27:33;101284.00;;;9.80
33877;BMP180;20166;51.738;7.158;2023-11-21T14:30:20;101286.00;;;9.90
33877;BMP180;20166;51.738;7.158;2023-11-21T14:33:09;101301.00;;;9.80
33877;BMP180;20166;51.738;7.158;2023-11-21T14:35:56;101302.00;;;9.90
33877;BMP180;20166;51.738;7.158;2023-11-21T14:38:43;101300.00;;;9.70
33877;BMP180;20166;51.738;7.158;2023-11-21T14:41:30;101314.00;;;9.70
33877;BMP180;20166;51.738;7.158;2023-11-21T14:44:17;101316.00;;;9.60
33877;BMP180;20166;51.738;7.158;2023-11-21T14:47:04;101330.00;;;9.50
33877;BMP180;20166;51.738;7.158;2023-11-21T14:50:00;101332.00;;;9.40
33877;BMP180;20166;51.738;7.158;2023-11-21T14:53:07;101342.00;;;9.40
33877;BMP180;20166;51.738;7.158;2023-11-21T14:55:54;101339.00;;;9.40
33877;BMP180;20166;51.738;7.158;2023-11-21T14:58:44;101347.00;;;9.50
33877;BMP180;20166;51.738;7.158;2023-11-21T15:01:32;101358.00;;;9.50
33877;BMP180;20166;51.738;7.158;2023-11-21T15:04:30;101358.00;;;9.50
33877;BMP180;20166;51.738;7.158;2023-11-21T15:07:21;101367.00;;;9.50
33877;BMP180;20166;51.738;7.158;2023-11-21T15:10:09;101371.00;;;9.50
33877;BMP180;20166;51.738;7.158;2023-11-21T15:12:59;101374.00;;;9.50
33877;BMP180;20166;51.738;7.158;2023-11-21T15:15:47;101378.00;;;9.30
33877;BMP180;20166;51.738;7.158;2023-11-21T15:18:37;101380.00;;;9.20
33877;BMP180;20166;51.738;7.158;2023-11-21T15:21:24;101388.00;;;8.90
33877;BMP180;20166;51.738;7.158;2023-11-21T15:24:10;101389.00;;;8.80
33877;BMP180;20166;51.738;7.158;2023-11-21T15:26:56;101389.00;;;8.80
33877;BMP180;20166;51.738;7.158;2023-11-21T15:29:43;101396.00;;;8.90
33877;BMP180;20166;51.738;7.158;2023-11-21T15:32:29;101411.00;;;8.90
33877;BMP180;20166;51.738;7.158;2023-11-21T15:35:17;101425.00;;;8.70
33877;BMP180;20166;51.738;7.158;2023-11-21T15:38:03;101415.00;;;8.70
33877;BMP180;20166;51.738;7.158;2023-11-21T15:40:49;101428.00;;;8.80
33877;BMP180;20166;51.738;7.158;2023-11-21T15:43:36;101427.00;;;8.70
33877;BMP180;20166;51.738;7.158;2023-11-21T15:46:22;101428.00;;;8.60
33877;BMP180;20166;51.738;7.158;2023-11-21T15:49:09;101435.00;;;8.60
33877;BMP180;20166;51.738;7.158;2023-11-21T15:51:59;101441.00;;;8.60
33877;BMP180;20166;51.738;7.158;2023-11-21T15:54:46;101448.00;;;8.50
33877;BMP180;20166;51.738;7.158;2023-11-21T15:57:32;101451.00;;;8.50
33877;BMP180;20166;51.738;7.158;2023-11-21T16:00:18;101462.00;;;8.50
33877;BMP180;20166;51.738;7.158;2023-11-21T16:03:07;101466.00;;;8.50
33877;BMP180;20166;51.738;7.158;2023-11-21T16:05:54;101470.00;;;8.50